86NC weather

Craig Craft Airport
Hertford, North Carolina, United States

Public forecast

Using degrees Fahrenheit for public forecast. Weather courtesy of forecast.io.

METAR (pilot weather report)

Closest report is Northeastern Regional Airport, 14.6 nm (27.1 km) SSW. Retrieved 2019/04/26 05:20 UTC (0 seconds ago):

KEDE 260520Z AUTO 21007KT 10SM CLR 23/18 A2985 RMK AO2 T02250175

TAF (pilot weather forecast)

Forecast is more than 12 hours old.

Closest forecast is Elizabeth City Regional Airport & Coast Guard Air Station, 15.4 nm (28.6 km) E. Retrieved 2019/04/25 00:30 UTC (1 day ago):

TAF TAF KECG 252325Z 2600/2624 21007KT P6SM BKN200 FM261400 19018G27KT P6SM BKN070 FM261700 19020G32KT 4SM SHRA BKN060 FM262200 22017G26KT 4SM SHRA OVC050